Time;durP1;ratioP1;P1;durP2;ratioP2;P2;SDS_P1;SDS_P2;PMS_P1;PMS_P2;Temp;Humidity;BMP_temperature;BMP_pressure;BME280_temperature;BME280_humidity;BME280_pressure;Samples;Min_cycle;Max_cycle;Signal;HPM_P1;HPM_P2
2022/10/16 00:01:50;;;;;;;;;;;22.70;44.60;;;;;;491639;240;1184;-54
2022/10/16 00:03:51;;;;;;;;;;;22.70;44.70;;;;;;491652;240;1293;-53
2022/10/16 00:05:53;;;;;;;;;;;22.70;44.70;;;;;;491988;240;1471;-53
2022/10/16 00:07:54;;;;;;;;;;;22.70;44.80;;;;;;492123;240;1256;-53
2022/10/16 00:09:55;;;;;;;;;;;22.60;44.90;;;;;;492121;240;1200;-54
2022/10/16 00:11:57;;;;;;;;;;;22.60;44.90;;;;;;491609;240;1195;-53
2022/10/16 00:13:58;;;;;;;;;;;22.60;45.00;;;;;;492035;240;2140;-53
2022/10/16 00:15:59;;;;;;;;;;;22.60;45.00;;;;;;491605;240;1254;-53
2022/10/16 00:18:01;;;;;;;;;;;22.60;45.10;;;;;;492036;240;1238;-53
2022/10/16 00:20:02;;;;;;;;;;;22.60;45.10;;;;;;491855;240;1188;-53
2022/10/16 00:22:03;;;;;;;;;;;22.60;45.10;;;;;;492099;240;1250;-53
2022/10/16 00:24:05;;;;;;;;;;;22.60;45.20;;;;;;492131;240;1300;-54
2022/10/16 00:26:06;;;;;;;;;;;22.60;45.20;;;;;;491711;240;1209;-53
2022/10/16 00:28:07;;;;;;;;;;;22.60;45.20;;;;;;491702;240;1241;-53
2022/10/16 00:30:09;;;;;;;;;;;22.60;45.20;;;;;;491710;240;1149;-53
2022/10/16 00:32:10;;;;;;;;;;;22.60;45.30;;;;;;491768;240;1209;-53
2022/10/16 00:34:11;;;;;;;;;;;22.60;45.30;;;;;;492154;240;2153;-54
2022/10/16 00:36:13;;;;;;;;;;;22.60;45.40;;;;;;491991;240;1235;-53
2022/10/16 00:38:14;;;;;;;;;;;22.60;45.40;;;;;;491672;240;1271;-53
2022/10/16 00:40:15;;;;;;;;;;;22.60;45.40;;;;;;491676;240;1417;-53
2022/10/16 00:42:17;;;;;;;;;;;22.60;45.40;;;;;;491834;240;1353;-53
2022/10/16 00:44:18;;;;;;;;;;;22.50;45.40;;;;;;492128;240;1242;-53
2022/10/16 00:46:19;;;;;;;;;;;22.50;45.50;;;;;;491696;240;1398;-53
2022/10/16 00:48:21;;;;;;;;;;;22.60;45.50;;;;;;492105;240;1251;-53
2022/10/16 00:50:22;;;;;;;;;;;22.60;45.50;;;;;;491897;240;1219;-53
2022/10/16 00:52:23;;;;;;;;;;;22.60;45.60;;;;;;491621;240;1469;-53
2022/10/16 00:54:25;;;;;;;;;;;22.60;45.60;;;;;;492092;240;2172;-53
2022/10/16 00:56:26;;;;;;;;;;;22.60;45.60;;;;;;492054;240;1295;-53
2022/10/16 00:58:27;;;;;;;;;;;22.50;45.50;;;;;;492129;240;1198;-53
2022/10/16 01:00:29;;;;;;;;;;;22.60;45.60;;;;;;492159;240;1171;-53
2022/10/16 01:02:30;;;;;;;;;;;22.50;45.50;;;;;;491693;240;1176;-54
2022/10/16 01:04:31;;;;;;;;;;;22.60;45.60;;;;;;492161;240;1145;-53
2022/10/16 01:06:35;;;;;;;;;;;22.50;45.60;;;;;;492071;240;1206;-53
2022/10/16 01:08:34;;;;;;;;;;;22.50;45.60;;;;;;491714;240;2162;-53
2022/10/16 01:10:35;;;;;;;;;;;22.60;45.70;;;;;;491853;240;1239;-53
2022/10/16 01:12:37;;;;;;;;;;;22.50;45.70;;;;;;492025;240;1226;-53
2022/10/16 01:14:38;;;;;;;;;;;22.50;45.70;;;;;;492114;240;2149;-53
2022/10/16 01:16:39;;;;;;;;;;;22.50;45.70;;;;;;491964;240;1193;-53
2022/10/16 01:18:41;;;;;;;;;;;22.50;45.70;;;;;;491972;240;1244;-54
2022/10/16 01:20:43;;;;;;;;;;;22.60;45.80;;;;;;492065;240;1767;-53
2022/10/16 01:22:43;;;;;;;;;;;22.50;45.80;;;;;;492077;240;1408;-54
2022/10/16 01:24:45;;;;;;;;;;;22.50;45.80;;;;;;491670;240;1196;-53
2022/10/16 01:26:46;;;;;;;;;;;22.50;45.80;;;;;;492011;240;1285;-53
2022/10/16 01:28:47;;;;;;;;;;;22.50;45.80;;;;;;491784;240;1271;-53
2022/10/16 01:30:49;;;;;;;;;;;22.50;45.80;;;;;;492110;240;1244;-53
2022/10/16 01:32:50;;;;;;;;;;;22.50;45.80;;;;;;491660;240;1241;-53
2022/10/16 01:34:51;;;;;;;;;;;22.50;45.90;;;;;;492124;240;2196;-53
2022/10/16 01:36:53;;;;;;;;;;;22.50;45.90;;;;;;491843;240;1270;-53
2022/10/16 01:38:54;;;;;;;;;;;22.50;45.90;;;;;;491664;240;1195;-53
2022/10/16 01:40:56;;;;;;;;;;;22.50;45.90;;;;;;491709;240;1239;-53
2022/10/16 01:42:57;;;;;;;;;;;22.50;45.90;;;;;;491671;240;2249;-54
2022/10/16 01:44:58;;;;;;;;;;;22.60;46.00;;;;;;492154;240;1209;-54
2022/10/16 01:46:59;;;;;;;;;;;22.50;45.90;;;;;;491662;240;1375;-53
2022/10/16 01:49:01;;;;;;;;;;;22.50;46.00;;;;;;492150;240;1372;-53
2022/10/16 01:51:02;;;;;;;;;;;22.50;46.00;;;;;;491734;240;1174;-54
2022/10/16 01:53:03;;;;;;;;;;;22.50;46.10;;;;;;491713;240;1271;-53
2022/10/16 01:55:05;;;;;;;;;;;22.50;46.10;;;;;;492124;240;2208;-53
2022/10/16 01:57:06;;;;;;;;;;;22.50;46.10;;;;;;491726;240;1210;-53
2022/10/16 01:59:07;;;;;;;;;;;22.50;46.10;;;;;;491979;240;1260;-53
2022/10/16 02:01:09;;;;;;;;;;;22.50;46.10;;;;;;492126;240;1256;-53
2022/10/16 02:03:10;;;;;;;;;;;22.50;46.10;;;;;;491670;240;1200;-53
2022/10/16 02:05:12;;;;;;;;;;;22.50;46.10;;;;;;492119;240;1189;-53
2022/10/16 02:07:13;;;;;;;;;;;22.50;46.10;;;;;;491634;240;1358;-53
2022/10/16 02:09:16;;;;;;;;;;;22.50;46.10;;;;;;491869;240;1246;-53
2022/10/16 02:11:17;;;;;;;;;;;22.50;46.10;;;;;;491657;240;2337;-53
2022/10/16 02:13:18;;;;;;;;;;;22.50;46.10;;;;;;491671;240;1238;-53
2022/10/16 02:15:19;;;;;;;;;;;22.50;46.20;;;;;;491908;240;2152;-53
2022/10/16 02:17:21;;;;;;;;;;;22.50;46.20;;;;;;491685;240;1300;-53
2022/10/16 02:19:22;;;;;;;;;;;22.50;46.20;;;;;;491896;240;1083;-54
2022/10/16 02:21:23;;;;;;;;;;;22.50;46.20;;;;;;491914;240;1186;-53
2022/10/16 02:23:25;;;;;;;;;;;22.50;46.20;;;;;;492066;240;1173;-53
2022/10/16 02:25:26;;;;;;;;;;;22.50;46.20;;;;;;491660;240;1178;-53
2022/10/16 02:27:27;;;;;;;;;;;22.50;46.20;;;;;;492040;240;1332;-53
2022/10/16 02:29:29;;;;;;;;;;;22.50;46.30;;;;;;491769;240;1240;-54
2022/10/16 02:31:30;;;;;;;;;;;22.50;46.30;;;;;;491681;240;1331;-54
2022/10/16 02:33:31;;;;;;;;;;;22.50;46.20;;;;;;491769;240;1271;-53
2022/10/16 02:35:33;;;;;;;;;;;22.50;46.30;;;;;;491859;240;2159;-52
2022/10/16 02:37:34;;;;;;;;;;;22.50;46.30;;;;;;491691;240;1128;-54
2022/10/16 02:39:35;;;;;;;;;;;22.50;46.30;;;;;;491826;240;1258;-54
2022/10/16 02:41:37;;;;;;;;;;;22.50;46.30;;;;;;492149;240;1220;-53
2022/10/16 02:43:38;;;;;;;;;;;22.50;46.30;;;;;;491818;240;1291;-54
2022/10/16 02:45:39;;;;;;;;;;;22.50;46.30;;;;;;491683;240;1220;-53
2022/10/16 02:47:40;;;;;;;;;;;22.50;46.30;;;;;;491677;240;1255;-53
2022/10/16 02:49:42;;;;;;;;;;;22.50;46.30;;;;;;491662;240;1202;-53
2022/10/16 02:51:43;;;;;;;;;;;22.50;46.40;;;;;;491637;240;1709;-54
2022/10/16 02:53:45;;;;;;;;;;;22.50;46.40;;;;;;491668;240;1201;-53
2022/10/16 02:55:46;;;;;;;;;;;22.50;46.40;;;;;;492113;240;2151;-53
2022/10/16 02:57:47;;;;;;;;;;;22.50;46.40;;;;;;491886;240;1246;-53
2022/10/16 02:59:49;;;;;;;;;;;22.50;46.40;;;;;;491637;240;1266;-53
2022/10/16 03:01:50;;;;;;;;;;;22.50;46.40;;;;;;492117;240;1180;-53
2022/10/16 03:03:51;;;;;;;;;;;22.50;46.40;;;;;;491749;240;1450;-53
2022/10/16 03:05:52;;;;;;;;;;;22.50;46.40;;;;;;492046;240;1222;-54
2022/10/16 03:07:54;;;;;;;;;;;22.50;46.40;;;;;;492149;240;1274;-53
2022/10/16 03:09:55;;;;;;;;;;;22.50;46.40;;;;;;491852;240;1168;-53
2022/10/16 03:11:57;;;;;;;;;;;22.50;46.40;;;;;;492106;240;1227;-53
2022/10/16 03:13:58;;;;;;;;;;;22.50;46.50;;;;;;492111;240;1127;-53
2022/10/16 03:15:59;;;;;;;;;;;22.50;46.50;;;;;;491792;240;2169;-53
2022/10/16 03:18:01;;;;;;;;;;;22.50;46.50;;;;;;491807;240;1193;-54
2022/10/16 03:20:02;;;;;;;;;;;22.50;46.50;;;;;;492146;240;1200;-53
2022/10/16 03:22:03;;;;;;;;;;;22.50;46.50;;;;;;491940;240;1207;-53
2022/10/16 03:24:05;;;;;;;;;;;22.50;46.50;;;;;;491677;240;1128;-53
2022/10/16 03:26:06;;;;;;;;;;;22.50;46.50;;;;;;492136;240;1215;-53
2022/10/16 03:28:07;;;;;;;;;;;22.50;46.50;;;;;;492062;240;1487;-54
2022/10/16 03:30:08;;;;;;;;;;;22.50;46.50;;;;;;491679;240;1215;-54
2022/10/16 03:32:10;;;;;;;;;;;22.50;46.50;;;;;;491679;240;1238;-53
2022/10/16 03:34:11;;;;;;;;;;;22.50;46.50;;;;;;491776;240;1199;-53
2022/10/16 03:36:12;;;;;;;;;;;22.50;46.60;;;;;;492046;240;2152;-53
2022/10/16 03:38:14;;;;;;;;;;;22.50;46.60;;;;;;491703;240;1176;-53
2022/10/16 03:40:16;;;;;;;;;;;22.50;46.60;;;;;;491645;240;1197;-53
2022/10/16 03:42:17;;;;;;;;;;;22.50;46.60;;;;;;492111;240;1215;-53
2022/10/16 03:44:18;;;;;;;;;;;22.50;46.60;;;;;;492123;240;1206;-53
2022/10/16 03:46:19;;;;;;;;;;;22.40;46.60;;;;;;492057;240;1545;-53
2022/10/16 03:48:21;;;;;;;;;;;22.50;46.70;;;;;;491657;240;1332;-53
2022/10/16 03:50:22;;;;;;;;;;;22.40;46.70;;;;;;492127;240;1177;-53
2022/10/16 03:52:23;;;;;;;;;;;22.40;46.70;;;;;;492096;240;1274;-53
2022/10/16 03:54:25;;;;;;;;;;;22.50;46.70;;;;;;491959;240;1214;-54
2022/10/16 03:56:26;;;;;;;;;;;22.50;46.70;;;;;;492133;240;2192;-53
2022/10/16 03:58:27;;;;;;;;;;;22.50;46.70;;;;;;491885;240;1282;-53
2022/10/16 04:00:29;;;;;;;;;;;22.50;46.70;;;;;;492048;240;1201;-53
2022/10/16 04:02:30;;;;;;;;;;;22.50;46.70;;;;;;492149;240;1315;-53
2022/10/16 04:04:31;;;;;;;;;;;22.40;46.70;;;;;;491802;240;1161;-53
2022/10/16 04:06:33;;;;;;;;;;;22.40;46.70;;;;;;491853;240;1074;-53
2022/10/16 04:08:36;;;;;;;;;;;22.50;46.80;;;;;;491991;240;1068;-53
2022/10/16 04:10:35;;;;;;;;;;;22.50;46.80;;;;;;491756;240;2272;-53
2022/10/16 04:12:37;;;;;;;;;;;22.50;46.70;;;;;;491590;240;1288;-53
2022/10/16 04:14:38;;;;;;;;;;;22.50;46.80;;;;;;491852;240;1138;-54
2022/10/16 04:16:39;;;;;;;;;;;22.50;46.80;;;;;;491645;240;2203;-53
2022/10/16 04:18:41;;;;;;;;;;;22.50;46.80;;;;;;491986;240;1101;-53
2022/10/16 04:20:42;;;;;;;;;;;22.50;46.80;;;;;;491578;240;1327;-53
2022/10/16 04:22:43;;;;;;;;;;;22.50;46.70;;;;;;491572;240;1632;-53
2022/10/16 04:24:45;;;;;;;;;;;22.50;46.70;;;;;;492137;240;1281;-53
2022/10/16 04:26:46;;;;;;;;;;;22.50;46.80;;;;;;491649;240;1627;-53
2022/10/16 04:28:47;;;;;;;;;;;22.50;46.80;;;;;;491691;240;1204;-53
2022/10/16 04:30:49;;;;;;;;;;;22.50;46.80;;;;;;491795;240;1252;-53
2022/10/16 04:32:50;;;;;;;;;;;22.50;46.80;;;;;;491660;240;1271;-53
2022/10/16 04:34:51;;;;;;;;;;;22.50;46.80;;;;;;491770;240;1240;-53
2022/10/16 04:36:53;;;;;;;;;;;22.50;46.80;;;;;;492063;240;2152;-53
2022/10/16 04:38:54;;;;;;;;;;;22.50;46.80;;;;;;491946;240;1222;-53
2022/10/16 04:40:55;;;;;;;;;;;22.50;46.80;;;;;;492110;240;1340;-53
2022/10/16 04:42:57;;;;;;;;;;;22.40;46.80;;;;;;491959;240;1200;-53
2022/10/16 04:44:58;;;;;;;;;;;22.50;46.80;;;;;;492120;240;1221;-53
2022/10/16 04:46:59;;;;;;;;;;;22.50;46.80;;;;;;492116;240;1197;-53
2022/10/16 04:49:01;;;;;;;;;;;22.40;46.80;;;;;;491648;240;1269;-53
2022/10/16 04:51:02;;;;;;;;;;;22.50;46.80;;;;;;492118;240;1125;-53
2022/10/16 04:53:03;;;;;;;;;;;22.50;46.80;;;;;;491882;240;1267;-53
2022/10/16 04:55:05;;;;;;;;;;;22.50;46.80;;;;;;492144;240;1559;-53
2022/10/16 04:57:06;;;;;;;;;;;22.50;46.80;;;;;;491623;240;2195;-54
2022/10/16 04:59:07;;;;;;;;;;;22.50;46.90;;;;;;492125;240;1245;-53
2022/10/16 05:01:09;;;;;;;;;;;22.50;46.80;;;;;;491959;240;1259;-53
2022/10/16 05:03:10;;;;;;;;;;;22.50;46.80;;;;;;491663;240;1223;-53
2022/10/16 05:05:11;;;;;;;;;;;22.50;46.90;;;;;;491775;240;1323;-53
2022/10/16 05:07:13;;;;;;;;;;;22.40;46.90;;;;;;491641;240;1243;-53
2022/10/16 05:09:14;;;;;;;;;;;22.40;46.90;;;;;;491651;240;1262;-53
2022/10/16 05:11:15;;;;;;;;;;;22.50;46.90;;;;;;491657;240;1260;-53
2022/10/16 05:13:17;;;;;;;;;;;22.40;46.80;;;;;;491758;240;1291;-54
2022/10/16 05:15:18;;;;;;;;;;;22.40;46.90;;;;;;491672;240;1248;-53
2022/10/16 05:17:19;;;;;;;;;;;22.50;46.90;;;;;;491986;240;2160;-53
2022/10/16 05:19:21;;;;;;;;;;;22.40;46.80;;;;;;491679;240;1413;-53
2022/10/16 05:21:22;;;;;;;;;;;22.50;47.00;;;;;;492102;240;1239;-53
2022/10/16 05:23:23;;;;;;;;;;;22.40;47.00;;;;;;492075;240;1149;-53
2022/10/16 05:25:25;;;;;;;;;;;22.40;47.00;;;;;;492119;240;1258;-53
2022/10/16 05:27:26;;;;;;;;;;;22.50;47.00;;;;;;491661;240;1210;-53
2022/10/16 05:29:27;;;;;;;;;;;22.40;47.00;;;;;;491956;240;1201;-53
2022/10/16 05:31:29;;;;;;;;;;;22.50;47.10;;;;;;491900;240;1218;-53
2022/10/16 05:33:30;;;;;;;;;;;22.40;47.00;;;;;;492043;240;1225;-53
2022/10/16 05:35:31;;;;;;;;;;;22.50;47.00;;;;;;491656;240;1409;-54
2022/10/16 05:37:33;;;;;;;;;;;22.40;46.90;;;;;;492136;240;2124;-53
2022/10/16 05:39:34;;;;;;;;;;;22.40;46.90;;;;;;492032;240;1189;-53
2022/10/16 05:41:35;;;;;;;;;;;22.40;47.00;;;;;;491705;240;1176;-53
2022/10/16 05:43:36;;;;;;;;;;;22.50;47.10;;;;;;491863;240;1257;-53
2022/10/16 05:45:38;;;;;;;;;;;22.50;47.00;;;;;;491715;240;1426;-53
2022/10/16 05:47:39;;;;;;;;;;;22.40;47.00;;;;;;492166;240;1018;-53
2022/10/16 05:49:41;;;;;;;;;;;22.40;47.00;;;;;;491679;240;1073;-53
2022/10/16 05:51:42;;;;;;;;;;;22.40;47.00;;;;;;491863;240;1169;-53
2022/10/16 05:53:43;;;;;;;;;;;22.50;47.10;;;;;;492164;240;1445;-53
2022/10/16 05:55:44;;;;;;;;;;;22.50;47.10;;;;;;491816;240;1210;-53
2022/10/16 05:57:46;;;;;;;;;;;22.40;47.00;;;;;;492132;240;2208;-52
2022/10/16 05:59:47;;;;;;;;;;;22.40;47.10;;;;;;491941;240;1185;-53
2022/10/16 06:01:48;;;;;;;;;;;22.40;47.10;;;;;;491973;240;1214;-53
2022/10/16 06:03:50;;;;;;;;;;;22.50;47.10;;;;;;491984;240;1209;-52
2022/10/16 06:05:51;;;;;;;;;;;22.40;47.10;;;;;;491774;240;1239;-53
2022/10/16 06:07:52;;;;;;;;;;;22.50;47.10;;;;;;492127;240;1218;-54
2022/10/16 06:09:54;;;;;;;;;;;22.40;47.00;;;;;;491822;240;1566;-53
2022/10/16 06:11:55;;;;;;;;;;;22.40;47.10;;;;;;491972;240;1201;-54
2022/10/16 06:13:57;;;;;;;;;;;22.50;47.10;;;;;;491979;240;1273;-53
2022/10/16 06:15:58;;;;;;;;;;;22.50;47.20;;;;;;491947;240;1197;-53
2022/10/16 06:18:00;;;;;;;;;;;22.40;47.10;;;;;;492083;240;2148;-53
2022/10/16 06:20:01;;;;;;;;;;;22.50;47.10;;;;;;492022;240;1252;-53
2022/10/16 06:22:04;;;;;;;;;;;22.50;47.10;;;;;;492095;240;1113;-53
2022/10/16 06:24:04;;;;;;;;;;;22.50;47.10;;;;;;491956;240;1973;-53
2022/10/16 06:26:05;;;;;;;;;;;22.50;47.10;;;;;;491659;240;1360;-53
2022/10/16 06:28:06;;;;;;;;;;;22.50;47.10;;;;;;492154;240;1254;-53
2022/10/16 06:30:07;;;;;;;;;;;22.50;47.10;;;;;;492154;240;1191;-53
2022/10/16 06:32:09;;;;;;;;;;;22.40;47.20;;;;;;491684;240;1203;-54
2022/10/16 06:34:11;;;;;;;;;;;22.50;47.20;;;;;;491769;240;1177;-53
2022/10/16 06:36:11;;;;;;;;;;;22.40;47.10;;;;;;491634;240;2274;-53
2022/10/16 06:38:13;;;;;;;;;;;22.50;47.10;;;;;;491701;240;2170;-53
2022/10/16 06:40:14;;;;;;;;;;;22.50;47.10;;;;;;491662;240;1315;-53
2022/10/16 06:42:16;;;;;;;;;;;22.50;47.10;;;;;;492054;240;1327;-53
2022/10/16 06:44:17;;;;;;;;;;;22.50;47.20;;;;;;491935;240;1253;-53
2022/10/16 06:46:18;;;;;;;;;;;22.50;47.20;;;;;;491830;240;1241;-53
2022/10/16 06:48:20;;;;;;;;;;;22.50;47.20;;;;;;491802;240;1243;-53
2022/10/16 06:50:21;;;;;;;;;;;22.40;47.10;;;;;;492023;240;1308;-54
2022/10/16 06:52:22;;;;;;;;;;;22.40;47.10;;;;;;491910;240;1226;-53
2022/10/16 06:54:24;;;;;;;;;;;22.40;47.20;;;;;;491897;240;1299;-53
2022/10/16 06:56:25;;;;;;;;;;;22.40;47.20;;;;;;492106;240;2188;-53
2022/10/16 06:58:26;;;;;;;;;;;22.40;47.20;;;;;;491660;240;1357;-53
2022/10/16 07:00:28;;;;;;;;;;;22.40;47.20;;;;;;491685;240;1258;-53
2022/10/16 07:02:29;;;;;;;;;;;22.40;47.20;;;;;;491914;240;1294;-52
2022/10/16 07:04:30;;;;;;;;;;;22.40;47.20;;;;;;492143;240;1273;-53
2022/10/16 07:06:32;;;;;;;;;;;22.50;47.20;;;;;;491644;240;1291;-54
2022/10/16 07:08:33;;;;;;;;;;;22.40;47.20;;;;;;492134;240;1094;-54
2022/10/16 07:10:34;;;;;;;;;;;22.50;47.20;;;;;;492130;240;1245;-53
2022/10/16 07:12:36;;;;;;;;;;;22.50;47.10;;;;;;491640;240;1271;-54
2022/10/16 07:14:37;;;;;;;;;;;22.50;47.00;;;;;;491857;240;1222;-54
2022/10/16 07:16:38;;;;;;;;;;;22.50;47.00;;;;;;492108;240;2204;-53
2022/10/16 07:18:40;;;;;;;;;;;22.60;47.00;;;;;;491808;240;1230;-53
2022/10/16 07:20:41;;;;;;;;;;;22.60;47.00;;;;;;491635;240;1827;-53
2022/10/16 07:22:42;;;;;;;;;;;22.60;46.90;;;;;;491763;240;1380;-53
2022/10/16 07:24:44;;;;;;;;;;;22.60;46.90;;;;;;491925;240;1233;-53
2022/10/16 07:26:45;;;;;;;;;;;22.60;46.90;;;;;;492129;240;1304;-54
2022/10/16 07:28:46;;;;;;;;;;;22.60;46.90;;;;;;491827;240;1245;-53
2022/10/16 07:30:48;;;;;;;;;;;22.60;47.00;;;;;;491899;240;1389;-53
2022/10/16 07:32:49;;;;;;;;;;;22.60;47.00;;;;;;491929;240;1348;-53
2022/10/16 07:34:50;;;;;;;;;;;22.60;47.00;;;;;;491819;240;1310;-54
2022/10/16 07:36:52;;;;;;;;;;;22.60;47.10;;;;;;491573;240;2191;-54
2022/10/16 07:38:53;;;;;;;;;;;22.50;47.10;;;;;;491649;240;1281;-53
2022/10/16 07:40:54;;;;;;;;;;;22.50;47.10;;;;;;492042;240;1199;-53
2022/10/16 07:42:56;;;;;;;;;;;22.50;47.10;;;;;;491660;240;1197;-54
2022/10/16 07:44:57;;;;;;;;;;;22.50;47.10;;;;;;491855;240;1245;-53
2022/10/16 07:46:58;;;;;;;;;;;22.50;47.20;;;;;;491741;240;1373;-53
2022/10/16 07:49:00;;;;;;;;;;;22.50;47.10;;;;;;492128;240;1263;-53
2022/10/16 07:51:01;;;;;;;;;;;22.50;47.10;;;;;;491738;240;1199;-53
2022/10/16 07:53:02;;;;;;;;;;;22.50;47.20;;;;;;491664;240;1355;-54
2022/10/16 07:55:04;;;;;;;;;;;22.50;47.20;;;;;;492136;240;1342;-53
2022/10/16 07:57:05;;;;;;;;;;;22.50;47.20;;;;;;491738;240;2144;-53
2022/10/16 07:59:06;;;;;;;;;;;22.50;47.20;;;;;;491962;240;1191;-53
2022/10/16 08:01:07;;;;;;;;;;;22.50;47.20;;;;;;492046;240;1403;-53
2022/10/16 08:03:09;;;;;;;;;;;22.50;47.30;;;;;;491668;240;1294;-53
2022/10/16 08:05:10;;;;;;;;;;;22.50;47.20;;;;;;492155;240;1199;-53
2022/10/16 08:07:11;;;;;;;;;;;22.50;47.10;;;;;;491838;240;1145;-53
2022/10/16 08:09:13;;;;;;;;;;;22.50;47.00;;;;;;492144;240;1263;-53
2022/10/16 08:11:14;;;;;;;;;;;22.50;46.80;;;;;;491746;240;1243;-54
2022/10/16 08:13:16;;;;;;;;;;;22.50;46.80;;;;;;491999;240;1205;-53
2022/10/16 08:15:17;;;;;;;;;;;22.50;46.80;;;;;;492149;240;1312;-54
2022/10/16 08:17:18;;;;;;;;;;;22.60;46.60;;;;;;491851;240;2149;-53
2022/10/16 08:19:20;;;;;;;;;;;22.60;46.50;;;;;;491679;240;1162;-53
2022/10/16 08:21:21;;;;;;;;;;;22.60;46.40;;;;;;491804;240;1216;-53
2022/10/16 08:23:22;;;;;;;;;;;22.60;46.30;;;;;;491718;240;1197;-54
2022/10/16 08:25:24;;;;;;;;;;;22.60;46.20;;;;;;491794;240;1225;-53
2022/10/16 08:27:25;;;;;;;;;;;22.70;46.20;;;;;;491864;240;1168;-53
2022/10/16 08:29:26;;;;;;;;;;;22.60;46.00;;;;;;491993;240;1269;-53
2022/10/16 08:31:27;;;;;;;;;;;22.70;46.00;;;;;;491975;240;1197;-53
2022/10/16 08:33:29;;;;;;;;;;;22.70;45.90;;;;;;491656;240;1217;-53
2022/10/16 08:35:30;;;;;;;;;;;22.70;45.80;;;;;;492065;240;1202;-53
2022/10/16 08:37:32;;;;;;;;;;;22.70;45.80;;;;;;491684;240;2173;-54
2022/10/16 08:39:33;;;;;;;;;;;22.70;45.70;;;;;;492103;240;1533;-53
2022/10/16 08:41:34;;;;;;;;;;;22.70;45.60;;;;;;492067;240;1666;-53
2022/10/16 08:43:35;;;;;;;;;;;22.70;45.50;;;;;;491637;240;1255;-53
2022/10/16 08:45:37;;;;;;;;;;;22.70;45.50;;;;;;492009;242;1178;-53
2022/10/16 08:47:38;;;;;;;;;;;22.70;45.40;;;;;;491751;240;1194;-54
2022/10/16 08:49:39;;;;;;;;;;;22.70;45.30;;;;;;491739;240;1200;-53
2022/10/16 08:51:41;;;;;;;;;;;22.80;45.40;;;;;;492066;240;1283;-53
2022/10/16 08:53:42;;;;;;;;;;;22.80;45.30;;;;;;492154;240;1230;-53
2022/10/16 08:55:43;;;;;;;;;;;22.70;45.20;;;;;;492084;240;1197;-53
2022/10/16 08:57:45;;;;;;;;;;;22.70;45.20;;;;;;491637;240;2191;-53
2022/10/16 08:59:46;;;;;;;;;;;22.70;45.20;;;;;;491762;240;1205;-53
2022/10/16 09:01:47;;;;;;;;;;;22.80;45.10;;;;;;492109;240;1258;-53
2022/10/16 09:03:49;;;;;;;;;;;22.80;45.00;;;;;;491901;240;1241;-54
2022/10/16 09:05:50;;;;;;;;;;;22.80;45.10;;;;;;492097;240;1648;-53
2022/10/16 09:07:52;;;;;;;;;;;22.80;45.00;;;;;;491825;240;1631;-53
2022/10/16 09:09:53;;;;;;;;;;;22.80;44.90;;;;;;491748;240;1359;-53
2022/10/16 09:11:54;;;;;;;;;;;22.80;44.90;;;;;;491684;240;1269;-53
2022/10/16 09:13:55;;;;;;;;;;;22.80;44.90;;;;;;491611;240;1254;-54
2022/10/16 09:15:57;;;;;;;;;;;22.80;44.80;;;;;;491914;240;1416;-54
2022/10/16 09:17:58;;;;;;;;;;;22.80;44.80;;;;;;491660;240;2189;-53
2022/10/16 09:19:59;;;;;;;;;;;22.80;44.70;;;;;;491649;240;1222;-53
2022/10/16 09:22:01;;;;;;;;;;;22.80;44.60;;;;;;491619;240;1225;-53
2022/10/16 09:24:02;;;;;;;;;;;22.80;44.50;;;;;;491776;240;1217;-53
2022/10/16 09:26:03;;;;;;;;;;;22.80;44.60;;;;;;491667;240;1359;-53
2022/10/16 09:28:05;;;;;;;;;;;22.80;44.60;;;;;;491904;240;1288;-53
2022/10/16 09:30:06;;;;;;;;;;;22.80;44.50;;;;;;491816;240;1241;-53
2022/10/16 09:32:07;;;;;;;;;;;22.80;44.30;;;;;;491800;240;1325;-53
2022/10/16 09:34:09;;;;;;;;;;;22.80;44.40;;;;;;491687;240;1223;-54
2022/10/16 09:36:10;;;;;;;;;;;22.80;44.40;;;;;;491671;240;1349;-53
2022/10/16 09:38:11;;;;;;;;;;;22.80;44.30;;;;;;491862;240;2164;-53
2022/10/16 09:40:13;;;;;;;;;;;22.80;44.30;;;;;;492136;240;1282;-53
2022/10/16 09:42:14;;;;;;;;;;;22.80;44.20;;;;;;492136;240;1193;-54
2022/10/16 09:44:16;;;;;;;;;;;22.80;44.30;;;;;;491672;240;1236;-53
2022/10/16 09:46:17;;;;;;;;;;;22.80;44.10;;;;;;491915;240;1261;-54
2022/10/16 09:48:18;;;;;;;;;;;22.80;44.10;;;;;;492144;240;1323;-54
2022/10/16 09:50:20;;;;;;;;;;;22.80;44.10;;;;;;491751;240;1288;-53
2022/10/16 09:52:21;;;;;;;;;;;22.80;44.10;;;;;;491927;240;1198;-53
2022/10/16 09:54:22;;;;;;;;;;;22.90;44.10;;;;;;491830;240;1317;-53
2022/10/16 09:56:24;;;;;;;;;;;22.80;44.00;;;;;;491654;240;1255;-54
2022/10/16 09:58:25;;;;;;;;;;;22.80;44.00;;;;;;492052;240;2176;-54
2022/10/16 10:00:27;;;;;;;;;;;22.80;43.90;;;;;;491759;240;1092;-53
2022/10/16 10:02:28;;;;;;;;;;;22.80;44.00;;;;;;491929;240;1282;-53
2022/10/16 10:04:29;;;;;;;;;;;22.80;43.90;;;;;;491682;240;1203;-53
2022/10/16 10:06:31;;;;;;;;;;;22.80;44.00;;;;;;491912;240;1237;-53
2022/10/16 10:08:32;;;;;;;;;;;22.80;43.90;;;;;;491654;240;1588;-53
2022/10/16 10:10:34;;;;;;;;;;;22.80;43.80;;;;;;492126;240;1248;-53
2022/10/16 10:12:36;;;;;;;;;;;22.80;43.80;;;;;;491647;240;1306;-53
2022/10/16 10:14:36;;;;;;;;;;;22.80;43.80;;;;;;491643;240;2682;-54
2022/10/16 10:16:38;;;;;;;;;;;22.80;43.70;;;;;;492027;240;1295;-53
2022/10/16 10:18:39;;;;;;;;;;;22.80;43.70;;;;;;492106;240;2184;-53
2022/10/16 10:20:40;;;;;;;;;;;22.80;43.80;;;;;;491641;240;1240;-53
2022/10/16 10:22:42;;;;;;;;;;;22.80;44.00;;;;;;491636;240;1363;-53
2022/10/16 10:24:43;;;;;;;;;;;22.70;44.20;;;;;;492096;240;1356;-53
2022/10/16 10:26:44;;;;;;;;;;;22.70;44.30;;;;;;491691;240;1237;-54
2022/10/16 10:28:46;;;;;;;;;;;22.70;44.40;;;;;;491893;240;1245;-53
2022/10/16 10:30:47;;;;;;;;;;;22.70;44.50;;;;;;491836;240;1186;-53
2022/10/16 10:32:48;;;;;;;;;;;22.70;44.60;;;;;;492140;240;1384;-53
2022/10/16 10:34:50;;;;;;;;;;;22.70;44.60;;;;;;492155;240;1203;-53
2022/10/16 10:36:51;;;;;;;;;;;22.60;44.80;;;;;;491772;240;1340;-53
2022/10/16 10:38:52;;;;;;;;;;;22.60;44.80;;;;;;491866;240;2160;-53
2022/10/16 10:40:54;;;;;;;;;;;22.70;44.90;;;;;;492116;240;1285;-53
2022/10/16 10:42:56;;;;;;;;;;;22.60;44.90;;;;;;492134;240;1200;-53
2022/10/16 10:44:56;;;;;;;;;;;22.70;45.00;;;;;;491800;240;2137;-53
2022/10/16 10:46:58;;;;;;;;;;;22.60;45.00;;;;;;491759;240;1278;-54
2022/10/16 10:48:59;;;;;;;;;;;22.60;45.00;;;;;;491742;240;1228;-53
2022/10/16 10:51:00;;;;;;;;;;;22.60;45.00;;;;;;491681;240;1218;-53
2022/10/16 10:53:02;;;;;;;;;;;22.70;45.10;;;;;;492097;240;1295;-53
2022/10/16 10:55:03;;;;;;;;;;;22.70;45.10;;;;;;492053;240;1247;-54
2022/10/16 10:57:04;;;;;;;;;;;22.70;45.10;;;;;;492123;240;1243;-53
2022/10/16 10:59:05;;;;;;;;;;;22.60;45.10;;;;;;492152;240;2199;-53
2022/10/16 11:01:07;;;;;;;;;;;22.60;45.10;;;;;;491655;240;1306;-53
2022/10/16 11:03:08;;;;;;;;;;;22.60;45.20;;;;;;491683;240;1196;-53
2022/10/16 11:05:09;;;;;;;;;;;22.70;45.20;;;;;;491776;240;1324;-53
2022/10/16 11:07:11;;;;;;;;;;;22.60;45.20;;;;;;491923;240;1280;-53
2022/10/16 11:09:12;;;;;;;;;;;22.60;45.20;;;;;;491888;240;1212;-54
2022/10/16 11:11:13;;;;;;;;;;;22.70;45.30;;;;;;491956;240;1200;-53
2022/10/16 11:13:15;;;;;;;;;;;22.60;45.20;;;;;;491838;240;1205;-54
2022/10/16 11:15:16;;;;;;;;;;;22.60;45.30;;;;;;491839;240;1263;-53
2022/10/16 11:17:18;;;;;;;;;;;22.70;45.30;;;;;;491654;240;1215;-54
2022/10/16 11:19:19;;;;;;;;;;;22.60;45.30;;;;;;492127;240;2156;-53
2022/10/16 11:21:20;;;;;;;;;;;22.70;45.50;;;;;;492121;240;1246;-53
2022/10/16 11:23:22;;;;;;;;;;;22.60;45.40;;;;;;491668;240;1365;-53
2022/10/16 11:25:24;;;;;;;;;;;22.60;45.50;;;;;;491665;240;1351;-53
2022/10/16 11:27:25;;;;;;;;;;;22.60;45.50;;;;;;491979;240;1299;-53
2022/10/16 11:29:27;;;;;;;;;;;22.60;45.50;;;;;;492056;240;1211;-53
2022/10/16 11:31:28;;;;;;;;;;;22.70;45.50;;;;;;491577;240;2437;-53
2022/10/16 11:33:31;;;;;;;;;;;22.60;45.50;;;;;;491827;240;2322;-54
2022/10/16 11:35:31;;;;;;;;;;;22.60;45.40;;;;;;491582;240;2052;-54
2022/10/16 11:37:32;;;;;;;;;;;22.60;45.50;;;;;;491839;240;1292;-53
2022/10/16 11:39:34;;;;;;;;;;;22.60;45.50;;;;;;491603;240;2169;-53
2022/10/16 11:41:35;;;;;;;;;;;22.60;45.40;;;;;;491583;240;1221;-53
2022/10/16 11:43:36;;;;;;;;;;;22.70;45.50;;;;;;492002;240;1283;-53
2022/10/16 11:45:38;;;;;;;;;;;22.60;45.50;;;;;;491778;240;1256;-53
2022/10/16 11:47:39;;;;;;;;;;;22.60;45.50;;;;;;491933;240;1203;-52
2022/10/16 11:49:40;;;;;;;;;;;22.60;45.50;;;;;;491988;240;1328;-54
2022/10/16 11:51:42;;;;;;;;;;;22.70;45.60;;;;;;491786;240;1176;-53
2022/10/16 11:53:43;;;;;;;;;;;22.60;45.60;;;;;;491803;240;1243;-53
2022/10/16 11:55:45;;;;;;;;;;;22.60;45.60;;;;;;491638;240;1260;-54
2022/10/16 11:57:46;;;;;;;;;;;22.60;45.60;;;;;;492121;240;1261;-54